Etusivu
METAR-TAF:

METAR-TAF

Lentoasemat :

Lansing Municipal Airport

Lansing, Illinois, Yhdysvallat

Leveyspiiri: 41-32-24N, Pituuspiiri: 087-31-56W, korkeus merenpinnasta: 188 m

Tämänhetkinen sää

Tämä raportti tehtiin 24 minuuttia sitten, kello 02.55 UTC
tyyntä
Lämpötila -5°C
Kosteus 49%
Ilmanpaine 1020 hPa
Näkyvyys: 16.1 km
selkeää

METAR: KIGQ 290255Z AUTO 00000KT 10SM CLR M05/M14 A3013 RMK AO2 T10551142

Aika: 21:19 (03:19 UTC)


TAF: puuttuu

Säähavainnot ja -ennusteet yli 4000 lentoasemalta (METAR- ja TAF-raportit).

Käytössä olevat sääasemat on merkitty karttaan keltaisilla ja punaisilla pisteillä.

Aseta hiiri pisteen päälle nähdäksesi sääaseman nimen.

Klikkaa sitten nähdäksesi säähavainnot ja -ennusteet.

Kartan vaihtaminen: klikkaa mustalla rastilla varustettuja vihreitä pisteitä, niin voit zoomata sisään; viivalla varustettua vihreää pistettä, niin voit zoomata ulos tai vihreitä nuolia, niin pääset viereisille kartoille.


METAR-TAF: